Time;durP1;ratioP1;P1;durP2;ratioP2;P2;SDS_P1;SDS_P2;PMS_P1;PMS_P2;Temp;Humidity;BMP_temperature;BMP_pressure;BME280_temperature;BME280_humidity;BME280_pressure;Samples;Min_cycle;Max_cycle;Signal;HPM_P1;HPM_P2
2022/09/02 00:01:22;;;;;;;30.52;17.67;;;26.30;99.90;;;;;;4993969;28;20026;-66
2022/09/02 00:03:50;;;;;;;32.85;19.45;;;26.30;99.90;;;;;;4994005;28;20030;-67
2022/09/02 00:06:37;;;;;;;26.83;17.17;;;26.40;99.90;;;;;;5000721;28;20626;-67
2022/09/02 00:09:06;;;;;;;24.75;17.23;;;26.30;99.90;;;;;;4994001;28;20057;-67
2022/09/02 00:11:35;;;;;;;33.03;19.42;;;26.40;99.90;;;;;;4993922;28;20388;-67
2022/09/02 00:14:04;;;;;;;29.27;18.58;;;26.40;99.90;;;;;;4994051;28;20030;-67
2022/09/02 00:16:32;;;;;;;26.50;19.92;;;26.40;99.90;;;;;;4994039;28;20054;-67
2022/09/02 00:19:01;;;;;;;27.63;18.40;;;26.40;99.90;;;;;;4993696;28;20031;-67
2022/09/02 00:21:29;;;;;;;37.03;19.23;;;26.40;99.90;;;;;;4993192;28;20069;-66
2022/09/02 00:23:56;;;;;;;33.70;19.90;;;26.50;99.90;;;;;;4993674;28;20029;-67
2022/09/02 00:26:23;;;;;;;29.13;21.10;;;26.40;99.90;;;;;;5012684;28;20022;-67
2022/09/02 00:28:50;;;;;;;34.20;20.13;;;26.50;99.90;;;;;;5010180;28;20456;-65
2022/09/02 00:31:16;;;;;;;36.47;20.58;;;26.40;99.90;;;;;;5005227;28;20030;-67
2022/09/02 00:33:43;;;;;;;35.42;21.52;;;26.40;99.90;;;;;;5013074;28;20050;-67
2022/09/02 00:36:09;;;;;;;36.13;21.23;;;26.40;99.90;;;;;;5012783;28;20050;-67
2022/09/02 00:38:38;;;;;;;31.20;20.88;;;26.50;99.90;;;;;;5013192;28;20037;-67
2022/09/02 00:41:08;;;;;;;36.10;22.20;;;26.50;99.90;;;;;;5013096;28;20034;-67
2022/09/02 00:43:57;;;;;;;37.60;23.25;;;26.50;99.90;;;;;;5013406;28;20034;-67
2022/09/02 00:46:25;;;;;;;37.22;22.13;;;26.50;99.90;;;;;;5013108;28;20422;-68
2022/09/02 00:49:15;;;;;;;30.15;20.70;;;26.60;99.90;;;;;;5013187;28;20038;-67
2022/09/02 00:51:49;;;;;;;32.15;22.55;;;26.60;99.90;;;;;;5013097;28;20018;-67
2022/09/02 00:54:17;;;;;;;31.50;23.17;;;26.60;99.90;;;;;;5013131;28;20395;-67
2022/09/02 00:56:45;;;;;;;36.65;22.52;;;26.60;99.90;;;;;;5016706;28;20018;-68
2022/09/02 00:59:21;;;;;;;36.25;23.40;;;26.70;99.90;;;;;;5016962;28;20022;-68
2022/09/02 01:01:47;;;;;;;31.48;21.70;;;26.70;99.90;;;;;;5017106;28;20079;-67
2022/09/02 01:04:16;;;;;;;36.72;23.27;;;26.70;99.90;;;;;;5016638;28;20106;-64
2022/09/02 01:06:42;;;;;;;39.53;24.27;;;26.80;99.90;;;;;;5017143;28;20018;-66
2022/09/02 01:09:13;;;;;;;37.90;23.98;;;26.80;99.90;;;;;;5016758;28;20028;-66
2022/09/02 01:11:46;;;;;;;40.22;26.33;;;26.90;99.90;;;;;;5016563;28;20500;-68
2022/09/02 01:14:15;;;;;;;42.28;25.45;;;26.90;99.90;;;;;;5016588;28;20157;-67
2022/09/02 01:16:48;;;;;;;38.40;26.17;;;26.90;99.90;;;;;;5016844;28;20018;-67
2022/09/02 01:19:24;;;;;;;42.13;27.52;;;27.00;99.90;;;;;;5016608;28;20057;-67
2022/09/02 01:21:53;;;;;;;45.60;30.42;;;27.00;99.90;;;;;;5016388;28;20053;-66
2022/09/02 01:24:22;;;;;;;55.47;31.13;;;27.00;99.90;;;;;;5016352;28;20029;-67
2022/09/02 01:26:52;;;;;;;44.05;27.58;;;26.90;99.90;;;;;;5016399;28;20475;-67
2022/09/02 01:29:20;;;;;;;52.00;28.30;;;27.00;99.90;;;;;;5016542;28;20036;-66
2022/09/02 01:31:46;;;;;;;43.38;26.35;;;27.00;99.90;;;;;;5016261;28;20029;-67
2022/09/02 01:34:13;;;;;;;43.13;25.02;;;27.00;99.90;;;;;;5016304;28;20529;-67
2022/09/02 01:36:41;;;;;;;40.22;24.65;;;27.00;99.90;;;;;;5016129;28;20060;-69
2022/09/02 01:39:10;;;;;;;38.10;24.52;;;27.00;99.90;;;;;;5016227;28;20037;-68
2022/09/02 01:41:37;;;;;;;38.05;24.60;;;27.00;99.90;;;;;;5016405;28;20069;-68
2022/09/02 01:44:06;;;;;;;38.35;23.60;;;27.10;99.90;;;;;;5016170;28;20026;-68
2022/09/02 01:46:33;;;;;;;37.42;24.13;;;27.20;99.90;;;;;;5008186;28;20072;-72
2022/09/02 01:49:00;;;;;;;40.95;23.40;;;27.10;99.90;;;;;;4996510;28;20419;-73
2022/09/02 01:51:27;;;;;;;37.95;24.15;;;27.20;99.90;;;;;;4996551;28;20029;-73
2022/09/02 01:53:54;;;;;;;32.22;21.60;;;27.20;99.90;;;;;;4996536;28;20332;-73
2022/09/02 01:56:20;;;;;;;37.47;23.98;;;27.30;99.90;;;;;;4978900;28;20463;-74
2022/09/02 01:58:48;;;;;;;31.85;20.02;;;27.30;99.90;;;;;;4996307;28;20022;-73
2022/09/02 02:01:14;;;;;;;32.40;21.35;;;27.30;99.90;;;;;;4996156;28;20023;-73
2022/09/02 02:03:41;;;;;;;32.20;20.10;;;27.40;99.90;;;;;;4996058;28;20391;-75
2022/09/02 02:06:11;;;;;;;36.70;22.33;;;27.40;99.90;;;;;;4995894;28;20116;-74
2022/09/02 02:08:38;;;;;;;35.97;21.98;;;27.40;99.90;;;;;;4995750;28;20019;-75
2022/09/02 02:11:05;;;;;;;33.00;20.75;;;27.40;99.90;;;;;;4996004;28;20018;-72
2022/09/02 02:13:32;;;;;;;32.63;21.23;;;27.50;99.90;;;;;;4996025;28;20018;-72
2022/09/02 02:15:59;;;;;;;31.90;18.90;;;27.50;99.90;;;;;;4995943;28;20387;-71
2022/09/02 02:18:26;;;;;;;30.05;18.15;;;27.50;99.90;;;;;;4996025;28;20022;-72
2022/09/02 02:20:53;;;;;;;31.45;19.25;;;27.60;99.90;;;;;;4995869;28;20034;-73
2022/09/02 02:23:20;;;;;;;27.85;17.98;;;27.60;99.90;;;;;;4995632;28;20058;-72
2022/09/02 02:25:46;;;;;;;30.67;19.38;;;27.60;99.90;;;;;;4995531;28;20034;-72
2022/09/02 02:28:13;;;;;;;28.13;18.33;;;27.70;99.90;;;;;;4995741;28;20030;-71
2022/09/02 02:30:40;;;;;;;33.67;21.05;;;27.80;99.90;;;;;;4995413;28;20373;-73
2022/09/02 02:33:06;;;;;;;33.65;21.40;;;27.80;99.90;;;;;;4995673;28;20412;-73
2022/09/02 02:35:33;;;;;;;29.85;18.95;;;27.80;99.90;;;;;;4995447;28;20030;-74
2022/09/02 02:38:00;;;;;;;24.85;16.90;;;27.80;99.90;;;;;;4995409;28;20026;-73
2022/09/02 02:40:28;;;;;;;33.17;15.15;;;27.80;99.90;;;;;;4995587;28;20054;-74
2022/09/02 02:42:54;;;;;;;21.35;13.32;;;27.80;99.90;;;;;;5001355;28;20551;-70
2022/09/02 02:45:22;;;;;;;61.85;44.20;;;27.80;99.90;;;;;;5009581;28;20027;-71
2022/09/02 02:47:50;;;;;;;164.77;110.45;;;27.90;99.90;;;;;;4995537;28;20026;-71
2022/09/02 02:50:19;;;;;;;56.80;35.58;;;28.10;99.90;;;;;;4995253;28;20026;-72
2022/09/02 02:52:47;;;;;;;43.33;23.38;;;28.20;99.90;;;;;;4995702;28;20026;-68
2022/09/02 02:55:15;;;;;;;34.15;18.33;;;28.30;99.90;;;;;;5002868;28;20407;-70
2022/09/02 02:57:43;;;;;;;36.08;17.55;;;28.30;99.90;;;;;;5001751;28;20530;-70
2022/09/02 03:00:13;;;;;;;28.60;17.63;;;28.30;99.90;;;;;;5002831;28;20045;-69
2022/09/02 03:02:39;;;;;;;26.98;17.17;;;28.30;99.90;;;;;;5004208;28;20393;-69
2022/09/02 03:05:09;;;;;;;30.52;16.67;;;28.30;99.90;;;;;;5004665;28;20105;-68
2022/09/02 03:07:36;;;;;;;25.45;18.92;;;28.40;99.90;;;;;;5003331;28;20015;-71
2022/09/02 03:10:04;;;;;;;37.78;20.90;;;28.40;99.90;;;;;;5001300;28;20030;-70
2022/09/02 03:12:31;;;;;;;37.58;21.65;;;28.50;99.90;;;;;;4999345;28;20034;-66
2022/09/02 03:14:58;;;;;;;34.13;19.63;;;28.60;99.90;;;;;;5014387;28;20057;-65
2022/09/02 03:17:25;;;;;;;27.98;17.52;;;28.70;99.90;;;;;;5000138;28;20062;-70
2022/09/02 03:19:51;;;;;;;26.10;16.83;;;28.70;99.90;;;;;;4993829;28;20018;-69
2022/09/02 03:22:18;;;;;;;31.13;18.38;;;28.60;99.90;;;;;;4994410;28;20129;-69
2022/09/02 03:24:44;;;;;;;30.15;18.48;;;28.70;99.90;;;;;;4994713;28;20423;-70
2022/09/02 03:27:11;;;;;;;29.17;16.73;;;28.70;99.90;;;;;;4994678;28;20138;-69
2022/09/02 03:29:37;;;;;;;40.20;17.05;;;28.80;99.90;;;;;;4994499;28;20023;-71
2022/09/02 03:32:04;;;;;;;25.10;14.10;;;28.80;99.90;;;;;;4994707;28;20165;-70
2022/09/02 03:34:32;;;;;;;27.00;16.02;;;28.80;99.90;;;;;;4994458;28;20034;-70
2022/09/02 03:36:58;;;;;;;26.25;16.48;;;28.80;99.90;;;;;;4994333;28;20042;-70
2022/09/02 03:39:25;;;;;;;23.67;14.07;;;28.70;99.90;;;;;;5005015;28;20037;-70
2022/09/02 03:41:52;;;;;;;24.30;15.88;;;28.80;99.90;;;;;;5013937;28;20390;-66
2022/09/02 03:44:18;;;;;;;26.60;16.42;;;28.80;99.90;;;;;;5007485;28;20084;-69
2022/09/02 03:46:45;;;;;;;20.30;14.82;;;29.00;99.90;;;;;;5002652;28;20028;-66
2022/09/02 03:49:12;;;;;;;25.25;14.32;;;29.00;99.90;;;;;;5003909;28;20018;-66
2022/09/02 03:51:41;;;;;;;22.35;13.77;;;29.10;99.90;;;;;;5003485;28;20017;-67
2022/09/02 03:54:09;;;;;;;20.27;13.10;;;29.10;99.90;;;;;;5003299;28;20085;-67
2022/09/02 03:56:39;;;;;;;42.90;29.55;;;29.10;99.90;;;;;;5003576;28;20056;-67
2022/09/02 03:59:05;;;;;;;43.10;30.67;;;29.10;99.90;;;;;;5004409;28;20029;-66
2022/09/02 04:01:32;;;;;;;32.45;23.90;;;29.20;99.90;;;;;;5003128;28;20045;-66
2022/09/02 04:03:58;;;;;;;24.98;16.45;;;29.30;99.90;;;;;;5003296;28;20360;-66
2022/09/02 04:06:25;;;;;;;20.77;13.23;;;29.40;99.90;;;;;;5004429;28;20360;-66
2022/09/02 04:08:52;;;;;;;24.67;12.68;;;29.50;99.90;;;;;;5002706;28;20388;-67
2022/09/02 04:11:20;;;;;;;19.45;13.40;;;29.60;99.90;;;;;;5003262;28;20022;-67
2022/09/02 04:13:48;;;;;;;19.33;11.45;;;29.70;99.90;;;;;;5004317;28;20025;-67
2022/09/02 04:16:19;;;;;;;31.02;23.60;;;29.80;99.90;;;;;;5004950;28;20121;-66
2022/09/02 04:18:46;;;;;;;42.40;33.67;;;30.00;99.90;;;;;;5009573;28;20034;-67
2022/09/02 04:21:13;;;;;;;32.25;21.08;;;30.10;99.90;;;;;;5009432;28;20475;-66
2022/09/02 04:23:40;;;;;;;18.25;12.75;;;30.20;99.90;;;;;;5009468;28;20040;-67
2022/09/02 04:26:09;;;;;;;15.38;10.30;;;30.30;99.90;;;;;;5009429;28;20044;-66
2022/09/02 04:28:36;;;;;;;17.65;10.25;;;30.30;99.90;;;;;;5007884;28;20479;-68
2022/09/02 04:31:06;;;;;;;21.58;9.60;;;30.40;99.90;;;;;;5007024;28;20030;-66
2022/09/02 04:33:34;;;;;;;16.52;11.23;;;30.50;99.90;;;;;;5005505;28;20030;-67
2022/09/02 04:36:06;;;;;;;16.98;11.65;;;30.60;99.90;;;;;;5008487;28;20080;-67
2022/09/02 04:38:33;;;;;;;15.73;11.27;;;30.60;99.90;;;;;;5008052;28;20030;-68
2022/09/02 04:41:04;;;;;;;15.48;10.95;;;30.50;99.90;;;;;;5008387;28;20133;-65
2022/09/02 04:43:31;;;;;;;13.85;9.18;;;30.50;99.90;;;;;;5007566;28;20105;-63
2022/09/02 04:45:57;;;;;;;17.73;9.90;;;30.50;99.90;;;;;;5006573;28;20022;-65
2022/09/02 04:48:24;;;;;;;15.95;9.98;;;30.40;99.90;;;;;;5007055;28;20044;-67
2022/09/02 04:50:50;;;;;;;26.52;15.00;;;30.30;99.90;;;;;;5004304;28;20018;-68
2022/09/02 04:53:17;;;;;;;31.23;20.10;;;30.30;99.90;;;;;;5011985;28;20045;-67
2022/09/02 04:55:44;;;;;;;23.27;13.77;;;30.30;99.90;;;;;;5006631;28;20037;-68
2022/09/02 04:58:10;;;;;;;38.85;17.35;;;30.40;99.90;;;;;;5005881;28;20037;-67
2022/09/02 05:00:40;;;;;;;28.65;17.42;;;30.40;99.90;;;;;;4999962;28;20045;-68
2022/09/02 05:03:07;;;;;;;32.33;18.30;;;30.50;99.90;;;;;;4996830;28;20538;-68
2022/09/02 05:05:35;;;;;;;35.90;21.25;;;30.60;99.90;;;;;;4997308;28;20053;-66
2022/09/02 05:08:03;;;;;;;45.85;26.13;;;30.80;99.90;;;;;;5003067;28;20022;-67
2022/09/02 05:10:31;;;;;;;39.80;24.60;;;30.90;99.90;;;;;;5007463;28;20026;-68
2022/09/02 05:12:59;;;;;;;42.55;24.35;;;30.90;99.90;;;;;;5005437;28;20026;-68
2022/09/02 05:15:26;;;;;;;51.20;33.05;;;30.90;99.90;;;;;;5006128;28;20030;-67
2022/09/02 05:17:52;;;;;;;53.58;34.75;;;30.80;99.90;;;;;;5006974;28;20049;-69
2022/09/02 05:20:19;;;;;;;54.50;34.97;;;30.70;99.90;;;;;;5007258;28;20022;-67
2022/09/02 05:22:46;;;;;;;41.65;28.40;;;30.70;99.90;;;;;;5006110;28;20101;-66
2022/09/02 05:25:13;;;;;;;37.03;23.75;;;30.70;99.90;;;;;;5004871;28;20027;-67
2022/09/02 05:27:39;;;;;;;36.50;20.25;;;30.60;99.90;;;;;;5006781;28;20026;-68
2022/09/02 05:30:06;;;;;;;31.65;17.67;;;30.60;99.90;;;;;;5006198;28;20134;-67
2022/09/02 05:32:34;;;;;;;22.77;15.93;;;30.50;99.90;;;;;;5004732;28;20415;-71
2022/09/02 05:35:01;;;;;;;26.48;16.02;;;30.50;99.90;;;;;;5006540;28;20018;-72
2022/09/02 05:37:27;;;;;;;24.08;15.18;;;30.50;99.90;;;;;;5006053;28;20046;-72
2022/09/02 05:39:54;;;;;;;21.90;14.75;;;30.50;99.90;;;;;;5004690;28;20018;-70
2022/09/02 05:42:20;;;;;;;23.52;12.90;;;30.50;99.90;;;;;;5005208;28;20030;-68
2022/09/02 05:44:47;;;;;;;20.42;11.77;;;30.40;99.90;;;;;;5005957;28;20022;-69
2022/09/02 05:47:14;;;;;;;16.80;9.88;;;30.40;99.90;;;;;;5004182;28;20034;-70
2022/09/02 05:49:40;;;;;;;18.60;9.98;;;30.30;99.90;;;;;;5006762;28;20052;-68
2022/09/02 05:52:09;;;;;;;16.45;7.38;;;30.20;99.90;;;;;;5008903;28;20388;-68
2022/09/02 05:54:37;;;;;;;14.95;5.60;;;30.20;99.90;;;;;;5003298;28;20022;-70
2022/09/02 05:57:09;;;;;;;10.55;4.00;;;29.90;99.90;;;;;;4996239;28;20030;-69
2022/09/02 05:59:38;;;;;;;5.82;3.00;;;29.60;99.90;;;;;;4996339;28;20026;-70
2022/09/02 06:02:05;;;;;;;6.60;3.15;;;29.40;99.90;;;;;;4996004;28;20395;-70
2022/09/02 06:04:35;;;;;;;7.65;2.58;;;29.20;99.90;;;;;;4996112;28;20033;-69
2022/09/02 06:07:02;;;;;;;5.75;2.72;;;29.00;99.90;;;;;;4996312;28;20145;-70
2022/09/02 06:09:28;;;;;;;7.18;2.35;;;28.80;99.90;;;;;;4996184;28;20069;-69
2022/09/02 06:11:56;;;;;;;6.93;2.63;;;28.70;99.90;;;;;;4998603;28;20031;-65
2022/09/02 06:14:24;;;;;;;7.20;2.53;;;28.60;99.90;;;;;;5005294;28;20072;-66
2022/09/02 06:16:52;;;;;;;7.10;2.53;;;28.50;99.90;;;;;;5005296;28;20031;-65
2022/09/02 06:19:21;;;;;;;7.32;4.80;;;28.30;99.90;;;;;;5006748;28;20049;-65
2022/09/02 06:21:48;;;;;;;13.80;7.97;;;28.30;99.90;;;;;;5006242;28;20045;-64
2022/09/02 06:24:15;;;;;;;35.50;27.55;;;28.20;99.90;;;;;;5003617;28;20022;-66
2022/09/02 06:26:42;;;;;;;35.38;22.00;;;28.20;99.90;;;;;;5004746;28;20032;-65
2022/09/02 06:29:09;;;;;;;18.85;12.85;;;28.20;99.90;;;;;;5005261;28;20018;-66
2022/09/02 06:31:36;;;;;;;10.15;4.80;;;28.30;99.90;;;;;;5003326;28;20105;-71
2022/09/02 06:34:03;;;;;;;7.38;3.30;;;28.20;99.90;;;;;;5004308;28;20100;-69
2022/09/02 06:36:31;;;;;;;8.25;3.90;;;28.10;99.90;;;;;;5004099;28;20054;-70
2022/09/02 06:38:59;;;;;;;14.77;10.00;;;28.00;99.90;;;;;;5008514;28;20383;-70
2022/09/02 06:41:29;;;;;;;45.55;30.25;;;27.90;99.90;;;;;;5003203;28;20133;-66
2022/09/02 06:43:58;;;;;;;29.65;24.27;;;27.90;99.90;;;;;;5004678;28;20042;-66
2022/09/02 06:46:30;;;;;;;18.95;9.63;;;27.80;99.90;;;;;;5004524;28;20049;-67
2022/09/02 06:48:56;;;;;;;;;;;27.80;99.90;;;;;;5004787;28;20022;-66
2022/09/02 06:51:24;;;;;;;9.90;3.60;;;27.70;99.90;;;;;;5006779;28;19906;-65
2022/09/02 06:53:51;;;;;;;8.07;4.18;;;27.70;99.90;;;;;;5011602;28;20061;-65
2022/09/02 06:56:18;;;;;;;47.97;36.90;;;27.70;99.90;;;;;;5014941;28;20112;-67
2022/09/02 06:58:45;;;;;;;14.85;4.90;;;27.70;99.90;;;;;;5014791;28;20029;-66
2022/09/02 07:01:21;;;;;;;77.93;51.08;;;27.70;99.90;;;;;;5014674;28;20028;-66
2022/09/02 07:06:37;;;;;;;8.68;4.90;;;27.60;99.90;;;;;;5014638;28;20029;-67
2022/09/02 07:09:06;;;;;;;42.75;30.27;;;27.60;99.90;;;;;;5007684;28;20283;-65
2022/09/02 07:11:33;;;;;;;16.42;11.02;;;27.60;99.90;;;;;;4994904;28;20065;-65
2022/09/02 07:14:00;;;;;;;8.98;4.93;;;27.60;99.90;;;;;;4998553;28;20427;-66
2022/09/02 07:16:32;;;;;;;9.52;5.57;;;27.60;99.90;;;;;;5002061;28;20041;-66
2022/09/02 07:19:00;;;;;;;12.75;6.70;;;27.60;99.90;;;;;;4994615;28;20022;-66
2022/09/02 07:21:28;;;;;;;11.38;7.15;;;27.60;99.90;;;;;;4994415;28;20056;-66
2022/09/02 07:23:55;;;;;;;11.63;8.07;;;27.70;99.90;;;;;;4994717;28;20117;-66
2022/09/02 07:26:21;;;;;;;12.00;7.45;;;27.70;99.90;;;;;;4994641;28;20438;-65
2022/09/02 07:28:48;;;;;;;14.48;7.07;;;27.70;99.90;;;;;;4994581;28;20044;-66
2022/09/02 07:31:16;;;;;;;10.05;6.93;;;27.70;99.90;;;;;;4994638;28;20030;-65
2022/09/02 07:33:44;;;;;;;8.35;6.18;;;27.80;99.90;;;;;;4994176;28;20034;-66
2022/09/02 07:36:12;;;;;;;14.10;5.90;;;27.80;99.90;;;;;;4994501;28;20100;-66
2022/09/02 07:38:40;;;;;;;7.47;5.32;;;27.80;99.90;;;;;;4996179;28;20033;-66
2022/09/02 07:41:08;;;;;;;11.05;5.82;;;27.80;99.90;;;;;;5004436;28;20201;-66
2022/09/02 07:43:35;;;;;;;12.90;6.28;;;27.80;99.90;;;;;;4994465;28;20033;-66
2022/09/02 07:46:04;;;;;;;16.35;6.32;;;27.90;99.90;;;;;;4993424;28;20019;-65
2022/09/02 07:48:31;;;;;;;15.93;6.13;;;27.90;99.90;;;;;;4993883;28;20034;-66
2022/09/02 07:50:58;;;;;;;14.40;6.53;;;27.90;99.90;;;;;;4994185;28;20026;-66
2022/09/02 07:53:25;;;;;;;12.75;4.97;;;27.90;99.90;;;;;;4994183;28;20542;-66
2022/09/02 07:55:52;;;;;;;8.30;4.65;;;27.90;99.90;;;;;;4993888;28;20399;-66
2022/09/02 07:58:21;;;;;;;7.53;4.40;;;27.90;99.90;;;;;;4994135;28;20022;-66
2022/09/02 08:00:48;;;;;;;7.35;3.80;;;27.90;99.90;;;;;;4998211;28;20559;-66
2022/09/02 08:03:15;;;;;;;9.38;4.03;;;27.90;99.90;;;;;;4999851;28;20038;-65
2022/09/02 08:05:43;;;;;;;11.68;3.78;;;28.00;99.90;;;;;;4993324;28;20158;-67
2022/09/02 08:08:10;;;;;;;5.50;3.30;;;28.10;99.90;;;;;;4993806;28;20034;-65
2022/09/02 08:10:37;;;;;;;8.50;3.30;;;28.00;99.90;;;;;;4993844;28;20045;-66
2022/09/02 08:13:05;;;;;;;12.20;4.05;;;27.90;99.90;;;;;;4997050;28;20077;-66
2022/09/02 08:15:34;;;;;;;10.80;3.55;;;28.00;99.90;;;;;;5002896;28;20415;-66
2022/09/02 08:18:02;;;;;;;12.32;3.38;;;27.90;99.90;;;;;;4986340;28;20045;-66
2022/09/02 08:20:31;;;;;;;9.23;3.40;;;27.80;99.90;;;;;;5003872;28;20735;-66
2022/09/02 08:22:57;;;;;;;6.53;3.40;;;27.80;99.90;;;;;;5002919;28;20035;-69
2022/09/02 08:25:24;;;;;;;12.45;3.25;;;27.80;99.90;;;;;;5001110;28;20072;-69
2022/09/02 08:27:53;;;;;;;8.23;3.10;;;27.70;99.90;;;;;;4998966;28;20029;-66
2022/09/02 08:30:20;;;;;;;5.88;3.40;;;27.80;99.90;;;;;;5013657;28;20026;-66
2022/09/02 08:32:47;;;;;;;7.88;3.15;;;27.80;99.90;;;;;;5013339;28;20030;-63
2022/09/02 08:35:13;;;;;;;25.63;15.90;;;27.60;99.90;;;;;;5013668;28;20076;-63
2022/09/02 08:37:40;;;;;;;6.38;3.17;;;27.60;99.90;;;;;;5013250;28;20054;-65
2022/09/02 08:40:15;;;;;;;6.10;2.90;;;27.70;99.90;;;;;;5002721;28;20089;-66
2022/09/02 08:42:46;;;;;;;7.68;2.92;;;27.70;99.90;;;;;;4993106;28;20109;-66
2022/09/02 08:45:29;;;;;;;5.00;3.08;;;27.80;99.90;;;;;;5006639;28;20029;-66
2022/09/02 08:48:04;;;;;;;6.28;2.40;;;27.80;99.90;;;;;;5002290;28;20026;-66
2022/09/02 08:50:33;;;;;;;3.67;2.55;;;27.80;99.90;;;;;;5002562;28;20030;-71
2022/09/02 08:53:13;;;;;;;3.70;2.42;;;27.80;99.90;;;;;;4993086;28;20399;-72
2022/09/02 08:55:48;;;;;;;9.75;3.72;;;27.80;99.90;;;;;;4992342;28;20396;-73
2022/09/02 08:58:18;;;;;;;8.07;2.53;;;27.80;99.90;;;;;;4993635;28;20030;-72
2022/09/02 09:00:54;;;;;;;4.60;1.92;;;27.70;99.90;;;;;;4993436;28;20031;-72
2022/09/02 09:03:29;;;;;;;6.82;2.58;;;27.70;99.90;;;;;;5001068;28;20033;-69
2022/09/02 09:06:00;;;;;;;5.25;2.10;;;27.80;99.90;;;;;;4998133;28;20040;-66
2022/09/02 09:08:34;;;;;;;6.50;2.35;;;27.70;99.90;;;;;;4991954;28;20018;-66
2022/09/02 09:11:11;;;;;;;11.10;3.83;;;27.80;99.90;;;;;;4993840;28;20517;-65
2022/09/02 09:13:40;;;;;;;51.05;36.08;;;27.80;99.90;;;;;;5004920;28;20026;-66
2022/09/02 09:16:26;;;;;;;10.55;4.90;;;27.80;99.90;;;;;;5001413;28;20669;-65
2022/09/02 09:19:15;;;;;;;14.05;5.25;;;27.80;99.90;;;;;;5003776;28;20023;-66
2022/09/02 09:21:43;;;;;;;26.60;13.88;;;27.80;99.90;;;;;;5006333;28;20025;-66
2022/09/02 09:24:48;;;;;;;11.73;6.03;;;27.80;99.90;;;;;;5006169;28;20030;-66
2022/09/02 09:27:19;;;;;;;15.68;5.85;;;27.80;99.90;;;;;;5006910;28;20023;-66
2022/09/02 09:29:47;;;;;;;10.48;4.90;;;27.80;99.90;;;;;;5004549;28;20073;-66
2022/09/02 09:32:32;;;;;;;14.60;5.88;;;27.70;99.90;;;;;;5006111;28;20030;-66
2022/09/02 09:35:02;;;;;;;13.25;6.20;;;27.70;99.90;;;;;;5005269;28;20034;-65
2022/09/02 09:37:33;;;;;;;8.10;4.57;;;27.70;99.90;;;;;;5005815;28;20056;-66
2022/09/02 09:40:01;;;;;;;9.63;4.60;;;27.70;99.90;;;;;;5004826;28;20109;-66
2022/09/02 09:42:37;;;;;;;10.10;5.43;;;27.70;99.90;;;;;;5004123;28;20017;-66
2022/09/02 09:45:34;;;;;;;9.52;5.82;;;27.70;99.90;;;;;;5004549;28;20113;-66
2022/09/02 09:48:22;;;;;;;9.40;5.38;;;27.70;99.90;;;;;;4963290;28;20043;-66
2022/09/02 09:51:10;;;;;;;9.40;6.43;;;27.70;99.90;;;;;;4964662;28;20564;-67
2022/09/02 09:53:37;;;;;;;12.73;6.50;;;27.70;99.90;;;;;;4964332;28;20114;-70
2022/09/02 09:56:06;;;;;;;15.00;5.30;;;27.70;99.90;;;;;;4964065;28;20362;-69
2022/09/02 09:58:42;;;;;;;10.80;6.15;;;27.60;99.90;;;;;;4962628;28;20030;-70
2022/09/02 10:01:16;;;;;;;24.02;12.15;;;27.60;99.90;;;;;;4962427;28;20063;-66
2022/09/02 10:03:56;;;;;;;14.10;9.43;;;27.60;99.90;;;;;;4962968;28;20023;-66
2022/09/02 10:06:31;;;;;;;10.77;6.28;;;27.60;99.90;;;;;;4963205;28;20041;-65
2022/09/02 10:09:18;;;;;;;10.57;5.30;;;27.70;99.90;;;;;;4963897;28;20027;-66
2022/09/02 10:11:59;;;;;;;19.20;11.32;;;27.80;99.90;;;;;;4961251;28;20039;-69
2022/09/02 10:14:37;;;;;;;24.20;10.40;;;27.80;99.90;;;;;;4963146;28;20026;-68
2022/09/02 10:17:11;;;;;;;21.70;13.48;;;27.70;99.90;;;;;;4961961;28;20042;-67
2022/09/02 10:20:04;;;;;;;29.20;13.75;;;27.70;99.90;;;;;;4957982;28;20059;-65
2022/09/02 10:22:50;;;;;;;28.80;13.63;;;27.60;99.90;;;;;;4961729;28;20027;-67
2022/09/02 10:25:20;;;;;;;25.60;12.40;;;27.60;99.90;;;;;;4959846;28;20023;-66
2022/09/02 10:28:03;;;;;;;24.90;11.25;;;27.70;99.90;;;;;;4963490;28;20050;-67
2022/09/02 10:30:38;;;;;;;15.77;9.43;;;27.60;99.90;;;;;;4965624;28;20114;-64
2022/09/02 10:33:17;;;;;;;20.55;9.30;;;27.60;99.90;;;;;;5002459;28;20022;-66
2022/09/02 10:35:53;;;;;;;20.15;9.95;;;27.50;99.90;;;;;;5004753;28;20024;-67
2022/09/02 10:38:49;;;;;;;16.60;9.38;;;27.50;99.90;;;;;;5004856;28;20042;-65
2022/09/02 10:41:17;;;;;;;36.50;25.73;;;27.50;99.90;;;;;;5003056;28;20109;-65
2022/09/02 10:44:12;;;;;;;30.05;21.80;;;27.40;99.90;;;;;;5003873;28;20029;-66
2022/09/02 10:46:49;;;;;;;51.03;30.15;;;27.40;99.90;;;;;;5004766;28;20018;-66
2022/09/02 10:49:17;;;;;;;35.42;21.23;;;27.40;99.90;;;;;;5004484;28;20022;-65
2022/09/02 10:52:09;;;;;;;26.73;17.63;;;27.40;99.90;;;;;;5003673;28;20023;-67
2022/09/02 10:54:46;;;;;;;45.38;21.48;;;27.40;99.90;;;;;;5004741;28;20021;-67
2022/09/02 10:57:13;;;;;;;49.53;34.55;;;27.50;99.90;;;;;;5004458;28;20049;-66
2022/09/02 10:59:52;;;;;;;53.40;34.40;;;27.50;99.90;;;;;;5003215;28;20046;-67
2022/09/02 11:02:44;;;;;;;44.42;28.58;;;27.50;99.90;;;;;;5004759;28;20479;-65
2022/09/02 11:05:17;;;;;;;55.08;38.28;;;27.50;99.90;;;;;;5004849;28;20057;-66
2022/09/02 11:07:54;;;;;;;77.43;52.97;;;27.50;99.90;;;;;;5003412;28;20032;-67
2022/09/02 11:10:34;;;;;;;103.18;73.97;;;27.50;99.90;;;;;;5006514;28;20025;-72
2022/09/02 11:13:28;;;;;;;81.88;57.33;;;27.50;99.90;;;;;;5004872;28;20505;-71
2022/09/02 11:16:05;;;;;;;56.17;36.28;;;27.50;99.90;;;;;;5007414;28;20027;-70
2022/09/02 11:18:43;;;;;;;48.00;30.48;;;27.40;99.90;;;;;;5003441;28;20438;-68
2022/09/02 11:21:18;;;;;;;46.03;28.17;;;27.40;99.90;;;;;;5008151;28;20085;-69
2022/09/02 11:24:09;;;;;;;40.88;25.30;;;27.40;99.90;;;;;;5008637;28;20387;-69
2022/09/02 11:26:58;;;;;;;40.13;22.38;;;27.40;99.90;;;;;;5004305;28;20051;-69
2022/09/02 11:29:46;;;;;;;31.98;19.73;;;27.40;99.90;;;;;;4958803;28;20369;-67
2022/09/02 11:32:38;;;;;;;46.45;21.50;;;27.50;99.90;;;;;;4962502;28;20030;-66
2022/09/02 11:35:13;;;;;;;33.60;20.52;;;27.40;99.90;;;;;;4959354;28;20034;-66
2022/09/02 11:37:48;;;;;;;32.95;19.13;;;27.40;99.90;;;;;;4965073;28;20043;-66
2022/09/02 11:40:44;;;;;;;54.95;31.73;;;27.40;99.90;;;;;;4964111;28;20030;-66
2022/09/02 11:43:41;;;;;;;62.15;37.55;;;27.30;99.90;;;;;;4952336;28;20039;-66
2022/09/02 11:46:27;;;;;;;50.80;28.13;;;27.30;99.90;;;;;;4963470;28;20425;-66
2022/09/02 11:49:14;;;;;;;46.60;24.15;;;27.20;99.90;;;;;;4958404;28;20027;-64
2022/09/02 11:52:02;;;;;;;37.75;21.73;;;27.30;99.90;;;;;;4963781;28;20113;-65
2022/09/02 11:54:39;;;;;;;38.78;19.38;;;27.20;99.90;;;;;;4962189;28;20547;-67
2022/09/02 11:57:10;;;;;;;31.83;18.45;;;27.20;99.90;;;;;;4953707;28;20053;-67
2022/09/02 11:59:57;;;;;;;29.73;19.80;;;27.20;99.90;;;;;;4970032;28;20092;-67
2022/09/02 12:02:57;;;;;;;34.55;21.42;;;27.40;99.90;;;;;;5003528;28;20029;-64
2022/09/02 12:05:34;;;;;;;35.05;19.98;;;27.50;99.90;;;;;;5007504;28;20057;-67
2022/09/02 12:08:10;;;;;;;30.00;18.02;;;27.40;99.90;;;;;;4997597;28;20198;-71
2022/09/02 12:13:11;;;;;;;20.58;14.85;;;27.20;99.90;;;;;;5001996;28;20069;-70
2022/09/02 12:15:39;;;;;;;29.88;17.17;;;27.30;99.90;;;;;;5003572;28;20076;-67
2022/09/02 12:18:11;;;;;;;31.58;21.27;;;27.30;99.90;;;;;;5001457;28;20026;-67
2022/09/02 12:20:38;;;;;;;36.05;24.30;;;27.30;99.90;;;;;;5001645;28;20022;-70
2022/09/02 12:23:06;;;;;;;41.38;26.73;;;27.20;99.90;;;;;;5003316;28;20034;-70
2022/09/02 12:25:37;;;;;;;50.15;28.83;;;27.20;99.90;;;;;;5003028;28;20018;-66
2022/09/02 12:28:13;;;;;;;52.63;29.38;;;27.20;99.90;;;;;;5001935;28;20021;-66
2022/09/02 12:31:01;;;;;;;48.22;29.52;;;27.20;99.90;;;;;;5002008;28;20022;-66
2022/09/02 12:33:42;;;;;;;48.20;30.35;;;27.20;99.90;;;;;;5003694;28;20022;-66
2022/09/02 12:36:30;;;;;;;46.40;28.02;;;27.30;99.90;;;;;;5003043;28;20096;-66
2022/09/02 12:39:27;;;;;;;40.22;26.38;;;27.50;99.90;;;;;;5002211;28;20038;-67
2022/09/02 12:42:06;;;;;;;49.88;27.02;;;27.40;99.90;;;;;;5004353;28;20025;-66
2022/09/02 12:44:44;;;;;;;42.35;25.67;;;27.40;99.90;;;;;;5007112;28;20471;-65
2022/09/02 12:47:21;;;;;;;41.47;25.70;;;27.40;99.90;;;;;;5004190;28;20039;-67
2022/09/02 12:50:08;;;;;;;48.83;26.08;;;27.40;99.90;;;;;;5001446;28;20031;-66
2022/09/02 12:52:35;;;;;;;43.78;25.45;;;27.40;99.90;;;;;;5007305;28;20375;-67
2022/09/02 12:55:33;;;;;;;41.15;25.85;;;27.30;99.90;;;;;;5017252;28;20359;-67
2022/09/02 12:58:11;;;;;;;45.40;25.02;;;27.40;99.90;;;;;;5013359;28;20052;-67